createdAt,value
2022-09-16T00:03:22.339Z,15.41
2022-09-16T00:08:26.346Z,15.38
2022-09-16T00:13:28.041Z,15.18
2022-09-16T00:18:29.685Z,15.38
2022-09-16T00:23:31.205Z,15.22
2022-09-16T00:28:32.983Z,15.37
2022-09-16T00:33:34.576Z,15.19
2022-09-16T00:38:36.638Z,15.21
2022-09-16T00:43:54.810Z,15.21
2022-09-16T00:48:57.608Z,15.09
2022-09-16T00:54:03.188Z,15.11
2022-09-16T00:59:33.208Z,15.11
2022-09-16T01:18:22.042Z,15.22
2022-09-16T01:23:37.107Z,15.29
2022-09-16T01:29:18.568Z,15.09
2022-09-16T01:34:37.626Z,15.25
2022-09-16T01:40:08.600Z,15.15
2022-09-16T01:45:20.596Z,15.23
2022-09-16T01:50:32.703Z,15.12
2022-09-16T01:55:38.686Z,15.18
2022-09-16T02:00:42.540Z,15.27
2022-09-16T02:05:52.706Z,15.28
2022-09-16T02:10:58.952Z,15.24
2022-09-16T02:16:05.944Z,15.18
2022-09-16T02:21:11.099Z,15.21
2022-09-16T02:26:15.979Z,15.07
2022-09-16T02:31:20.693Z,15.22
2022-09-16T02:50:12.408Z,14.99
2022-09-16T02:55:26.948Z,15.11
2022-09-16T03:00:29.662Z,15.11
2022-09-16T03:05:31.594Z,15.23
2022-09-16T03:10:40.179Z,15.04
2022-09-16T03:15:51.782Z,14.92
2022-09-16T03:21:03.963Z,14.96
2022-09-16T03:26:20.798Z,14.99
2022-09-16T03:31:32.157Z,15.13
2022-09-16T03:36:37.731Z,15.04
2022-09-16T03:41:40.323Z,15.02
2022-09-16T03:46:43.062Z,14.98
2022-09-16T03:51:45.948Z,15.01
2022-09-16T03:56:47.625Z,15.07
2022-09-16T04:01:49.239Z,15.09
2022-09-16T04:06:50.806Z,15.03
2022-09-16T04:11:52.298Z,15.16
2022-09-16T04:16:54.723Z,15.08
2022-09-16T04:21:56.327Z,15.04
2022-09-16T04:26:58.230Z,15.04
2022-09-16T04:31:59.823Z,14.97
2022-09-16T04:37:01.616Z,14.97
2022-09-16T04:42:05.502Z,15.01
2022-09-16T04:47:07.119Z,15.02
2022-09-16T04:52:08.656Z,15.21
2022-09-16T04:57:10.229Z,15.12
2022-09-16T05:02:11.827Z,15.06
2022-09-16T05:07:13.884Z,15.15
2022-09-16T05:12:15.880Z,15.10
2022-09-16T05:17:39.566Z,15.08
2022-09-16T05:22:39.268Z,15.01
2022-09-16T05:27:40.826Z,15.16
2022-09-16T05:32:42.324Z,15.18
2022-09-16T05:37:43.926Z,15.21
2022-09-16T05:42:48.964Z,15.08
2022-09-16T05:47:51.445Z,15.12
2022-09-16T05:52:52.981Z,15.19
2022-09-16T05:57:54.532Z,15.00
2022-09-16T06:02:56.075Z,15.01
2022-09-16T06:07:57.641Z,15.10
2022-09-16T06:12:59.566Z,15.17
2022-09-16T06:18:06.140Z,15.15
2022-09-16T06:23:08.108Z,15.29
2022-09-16T06:28:11.455Z,15.33
2022-09-16T06:33:13.075Z,15.48
2022-09-16T06:38:14.662Z,15.76
2022-09-16T06:43:16.766Z,15.64
2022-09-16T06:48:18.331Z,15.70
2022-09-16T06:53:20.004Z,15.69
2022-09-16T06:58:21.635Z,15.75
2022-09-16T07:03:23.302Z,15.51
2022-09-16T07:08:25.211Z,15.89
2022-09-16T07:13:27.483Z,15.71
2022-09-16T07:18:30.267Z,15.77
2022-09-16T07:23:32.675Z,16.08
2022-09-16T07:28:34.936Z,15.98
2022-09-16T07:33:39.481Z,15.95
2022-09-16T07:38:41.051Z,15.95
2022-09-16T07:43:43.250Z,15.97
2022-09-16T07:48:45.811Z,16.12
2022-09-16T07:53:47.504Z,16.01
2022-09-16T07:58:49.262Z,16.14
2022-09-16T08:03:51.046Z,16.13
2022-09-16T08:08:54.829Z,16.09
2022-09-16T08:13:58.948Z,16.26
2022-09-16T08:19:00.532Z,16.16
2022-09-16T08:24:02.110Z,16.28
2022-09-16T08:29:08.836Z,16.31
2022-09-16T08:34:11.165Z,16.60
2022-09-16T08:39:12.768Z,16.51
2022-09-16T08:44:36.372Z,16.60
2022-09-16T08:49:43.932Z,16.44
2022-09-16T08:54:57.722Z,16.41
2022-09-16T09:00:07.868Z,16.61
2022-09-16T09:05:17.020Z,16.58
2022-09-16T09:10:46.416Z,16.51
2022-09-16T09:16:01.071Z,16.38
2022-09-16T09:21:27.168Z,16.49
2022-09-16T09:26:51.994Z,16.53
2022-09-16T09:32:17.184Z,16.40
2022-09-16T09:37:47.022Z,16.52
2022-09-16T09:42:57.001Z,16.59
2022-09-16T09:48:21.859Z,16.68
2022-09-16T09:53:53.911Z,16.82
2022-09-16T09:59:32.803Z,16.87
2022-09-16T10:04:38.269Z,17.12
2022-09-16T10:09:48.522Z,16.81
2022-09-16T10:14:50.125Z,16.74
2022-09-16T10:20:05.826Z,16.77
2022-09-16T10:25:24.395Z,16.79
2022-09-16T10:30:28.026Z,15.69
2022-09-16T10:35:31.767Z,15.79
2022-09-16T10:40:34.069Z,16.09
2022-09-16T10:45:37.202Z,16.06
2022-09-16T10:50:38.758Z,15.77
2022-09-16T10:55:40.348Z,15.86
2022-09-16T11:00:55.738Z,16.23
2022-09-16T11:06:00.354Z,16.31
2022-09-16T11:11:11.883Z,16.27
2022-09-16T11:16:20.677Z,16.52
2022-09-16T11:21:43.559Z,16.40
2022-09-16T11:27:03.576Z,16.38
2022-09-16T11:32:14.148Z,16.19
2022-09-16T11:37:36.149Z,16.19
2022-09-16T11:42:55.849Z,16.34
2022-09-16T11:48:34.158Z,16.28
2022-09-16T11:53:44.094Z,16.29
2022-09-16T11:58:54.163Z,16.34
2022-09-16T12:04:04.720Z,16.25
2022-09-16T12:09:12.494Z,16.26
2022-09-16T12:14:27.661Z,16.20
2022-09-16T12:19:39.039Z,16.47
2022-09-16T12:24:48.456Z,16.78
2022-09-16T12:30:02.170Z,16.85
2022-09-16T12:35:12.315Z,16.85
2022-09-16T12:40:21.263Z,16.79
2022-09-16T12:45:43.162Z,16.90
2022-09-16T12:50:54.594Z,16.90
2022-09-16T12:56:14.835Z,16.83
2022-09-16T13:01:24.262Z,17.01
2022-09-16T13:06:33.292Z,17.16
2022-09-16T13:16:58.291Z,17.39
2022-09-16T13:22:17.469Z,17.44
2022-09-16T13:27:23.928Z,17.58
2022-09-16T13:32:26.624Z,17.57
2022-09-16T13:37:28.414Z,17.45
2022-09-16T13:42:29.918Z,17.53
2022-09-16T13:47:34.292Z,17.56
2022-09-16T13:52:36.433Z,17.45
2022-09-16T13:57:48.477Z,17.41
2022-09-16T14:03:08.636Z,17.51
2022-09-16T14:08:21.884Z,17.27
2022-09-16T14:13:24.676Z,17.07
2022-09-16T14:18:32.686Z,16.82
2022-09-16T14:23:34.222Z,16.77
2022-09-16T14:28:38.705Z,16.78
2022-09-16T14:33:44.725Z,16.72
2022-09-16T14:38:55.238Z,16.57
2022-09-16T14:44:23.236Z,16.44
2022-09-16T14:49:24.902Z,16.49
2022-09-16T14:54:27.328Z,16.45
2022-09-16T14:59:37.645Z,16.42
2022-09-16T15:04:40.943Z,16.37
2022-09-16T15:09:56.728Z,16.43
2022-09-16T15:14:58.445Z,16.40
2022-09-16T15:20:00.120Z,16.38
2022-09-16T15:25:02.087Z,16.29
2022-09-16T15:30:05.893Z,16.32
2022-09-16T15:35:23.564Z,16.31
2022-09-16T15:40:27.941Z,16.39
2022-09-16T15:45:29.728Z,16.35
2022-09-16T15:50:40.150Z,16.30
2022-09-16T15:56:04.731Z,16.39
2022-09-16T16:01:13.791Z,16.27
2022-09-16T16:06:15.793Z,16.38
2022-09-16T16:11:19.429Z,16.21
2022-09-16T16:16:21.567Z,16.23
2022-09-16T16:21:23.185Z,16.19
2022-09-16T16:26:24.817Z,16.09
2022-09-16T16:31:26.468Z,16.07
2022-09-16T16:36:28.078Z,15.97
2022-09-16T16:41:29.636Z,15.91
2022-09-16T16:46:31.244Z,15.94
2022-09-16T16:51:32.995Z,15.89
2022-09-16T16:56:34.586Z,15.83
2022-09-16T17:01:37.239Z,15.83
2022-09-16T17:06:40.070Z,15.77
2022-09-16T17:11:57.076Z,15.74
2022-09-16T17:16:59.038Z,15.69
2022-09-16T17:22:00.634Z,15.62
2022-09-16T17:27:02.189Z,15.60
2022-09-16T17:32:03.740Z,15.55
2022-09-16T17:37:08.330Z,15.46
2022-09-16T17:42:09.950Z,15.38
2022-09-16T17:47:11.980Z,15.23
2022-09-16T17:52:13.554Z,15.16
2022-09-16T17:57:15.103Z,15.15
2022-09-16T18:02:16.817Z,15.18
2022-09-16T18:07:18.516Z,15.22
2022-09-16T18:12:20.219Z,15.14
2022-09-16T18:17:21.830Z,14.93
2022-09-16T18:22:23.646Z,14.83
2022-09-16T18:27:25.594Z,14.93
2022-09-16T18:32:29.841Z,14.93
2022-09-16T18:37:31.582Z,14.82
2022-09-16T18:42:34.445Z,14.96
2022-09-16T18:47:36.057Z,14.88
2022-09-16T18:52:37.708Z,14.96
2022-09-16T18:57:39.552Z,14.95
2022-09-16T19:02:43.205Z,14.73
2022-09-16T19:07:44.785Z,14.77
2022-09-16T19:12:46.406Z,14.92
2022-09-16T19:17:48.023Z,14.85
2022-09-16T19:22:49.705Z,14.67
2022-09-16T19:27:51.330Z,14.78
2022-09-16T19:32:52.952Z,14.84
2022-09-16T19:37:54.829Z,14.68
2022-09-16T19:42:56.452Z,14.68
2022-09-16T19:47:58.073Z,14.95
2022-09-16T19:52:59.691Z,14.86
2022-09-16T19:58:02.663Z,14.89
2022-09-16T20:03:04.430Z,14.81
2022-09-16T20:08:05.955Z,14.74
2022-09-16T20:13:07.636Z,14.85
2022-09-16T20:18:09.145Z,14.70
2022-09-16T20:23:10.721Z,14.87
2022-09-16T20:28:12.253Z,14.84
2022-09-16T20:33:13.794Z,14.66
2022-09-16T20:38:15.342Z,14.68
2022-09-16T20:43:17.776Z,14.60
2022-09-16T20:48:19.266Z,14.68
2022-09-16T20:53:20.835Z,14.32
2022-09-16T20:58:22.350Z,14.44
2022-09-16T21:03:23.850Z,14.46
2022-09-16T21:08:25.421Z,14.36
2022-09-16T21:13:27.278Z,14.56
2022-09-16T21:18:29.281Z,14.35
2022-09-16T21:23:32.150Z,14.44
2022-09-16T21:28:34.243Z,14.35
2022-09-16T21:33:37.518Z,14.37
2022-09-16T21:38:40.301Z,14.31
2022-09-16T21:43:49.559Z,14.34
2022-09-16T21:48:51.692Z,14.36
2022-09-16T21:53:53.301Z,14.35
2022-09-16T21:58:55.708Z,14.27
2022-09-16T22:03:59.833Z,14.16
2022-09-16T22:09:03.780Z,14.24
2022-09-16T22:14:05.376Z,14.25
2022-09-16T22:19:15.925Z,14.07
2022-09-16T22:24:20.288Z,14.06
2022-09-16T22:29:23.690Z,13.94
2022-09-16T22:34:25.247Z,14.05
2022-09-16T22:39:26.752Z,13.97
2022-09-16T22:44:28.352Z,13.96
2022-09-16T22:49:29.860Z,14.05
2022-09-16T22:54:31.368Z,13.83
2022-09-16T22:59:32.865Z,13.92
2022-09-16T23:04:35.454Z,13.89
2022-09-16T23:09:37.473Z,13.89
2022-09-16T23:14:38.979Z,13.77
2022-09-16T23:19:40.675Z,13.86
2022-09-16T23:24:42.304Z,13.93
2022-09-16T23:29:43.811Z,13.94
2022-09-16T23:34:45.337Z,13.88
2022-09-16T23:39:46.873Z,13.89
2022-09-16T23:44:48.386Z,13.94
2022-09-16T23:49:50.090Z,13.76
2022-09-16T23:54:51.635Z,13.64
2022-09-16T23:59:53.166Z,13.77
